createdAt,value
2023-11-13T00:00:03.673Z,4.53
2023-11-13T00:02:35.565Z,3.75
2023-11-13T00:05:03.005Z,4.18
2023-11-13T00:07:30.626Z,5.57
2023-11-13T00:09:57.947Z,4.75
2023-11-13T00:12:27.860Z,4.53
2023-11-13T00:14:55.103Z,4.93
2023-11-13T00:17:22.397Z,4.55
2023-11-13T00:19:49.737Z,5.80
2023-11-13T00:22:16.989Z,5.32
2023-11-13T00:24:44.161Z,6.00
2023-11-13T00:27:11.331Z,6.25
2023-11-13T00:29:38.492Z,6.00
2023-11-13T00:32:06.175Z,6.45
2023-11-13T00:34:33.661Z,4.90
2023-11-13T00:37:00.908Z,5.57
2023-11-13T00:39:29.010Z,4.72
2023-11-13T00:41:56.168Z,6.35
2023-11-13T00:44:23.333Z,5.15
2023-11-13T00:46:50.797Z,5.18
2023-11-13T00:49:18.558Z,5.13
2023-11-13T00:51:45.984Z,4.72
2023-11-13T00:54:13.823Z,4.47
2023-11-13T00:56:41.628Z,5.35
2023-11-13T00:59:08.856Z,4.85
2023-11-13T01:01:36.110Z,5.45
2023-11-13T01:04:04.391Z,4.95
2023-11-13T01:06:31.694Z,4.22
2023-11-13T01:08:59.863Z,4.65
2023-11-13T01:11:28.008Z,4.78
2023-11-13T01:13:55.518Z,4.38
2023-11-13T01:16:22.950Z,4.78
2023-11-13T01:18:54.413Z,4.38
2023-11-13T01:21:23.387Z,5.30
2023-11-13T01:23:50.889Z,5.32
2023-11-13T01:26:18.113Z,3.55
2023-11-13T01:28:45.259Z,4.18
2023-11-13T01:31:16.617Z,4.65
2023-11-13T01:33:43.888Z,5.10
2023-11-13T01:36:11.089Z,4.82
2023-11-13T01:38:38.245Z,4.90
2023-11-13T01:41:06.599Z,4.97
2023-11-13T01:43:33.756Z,4.28
2023-11-13T01:46:01.660Z,4.75
2023-11-13T01:48:29.987Z,3.60
2023-11-13T01:50:57.192Z,3.88
2023-11-13T01:53:25.225Z,3.13
2023-11-13T01:55:56.583Z,3.65
2023-11-13T01:58:24.517Z,3.17
2023-11-13T02:00:52.060Z,3.22
2023-11-13T02:03:20.375Z,2.47
2023-11-13T02:05:49.401Z,3.40
2023-11-13T02:08:16.581Z,2.55
2023-11-13T02:10:43.961Z,4.00
2023-11-13T02:13:13.398Z,2.92
2023-11-13T02:15:42.619Z,2.47
2023-11-13T02:18:10.053Z,2.72
2023-11-13T02:20:37.353Z,1.80
2023-11-13T02:23:04.989Z,2.20
2023-11-13T02:25:38.112Z,2.53
2023-11-13T02:28:06.444Z,2.00
2023-11-13T02:30:40.144Z,2.42
2023-11-13T02:33:08.008Z,2.60
2023-11-13T02:35:35.227Z,2.10
2023-11-13T02:38:02.464Z,2.33
2023-11-13T02:40:29.722Z,2.13
2023-11-13T02:42:56.952Z,2.42
2023-11-13T02:45:27.774Z,2.05
2023-11-13T02:47:55.438Z,2.38
2023-11-13T02:50:25.272Z,2.15
2023-11-13T02:52:52.451Z,1.80
2023-11-13T02:55:19.714Z,2.20
2023-11-13T02:57:46.986Z,2.55
2023-11-13T03:00:14.400Z,2.78
2023-11-13T03:02:41.583Z,1.92
2023-11-13T03:05:09.998Z,2.40
2023-11-13T03:07:38.155Z,1.83
2023-11-13T03:10:07.148Z,2.38
2023-11-13T03:12:34.433Z,2.42
2023-11-13T03:15:01.967Z,2.20
2023-11-13T03:17:29.242Z,2.17
2023-11-13T03:19:56.397Z,2.53
2023-11-13T03:22:23.569Z,2.53
2023-11-13T03:24:51.346Z,2.15
2023-11-13T03:27:18.496Z,2.05
2023-11-13T03:29:45.615Z,2.38
2023-11-13T03:32:12.974Z,2.10
2023-11-13T03:34:42.085Z,1.95
2023-11-13T03:37:09.360Z,2.90
2023-11-13T03:39:37.493Z,3.83
2023-11-13T03:42:05.047Z,2.70
2023-11-13T03:44:32.268Z,2.63
2023-11-13T03:46:59.569Z,2.70
2023-11-13T03:49:26.757Z,2.42
2023-11-13T03:51:55.721Z,2.28
2023-11-13T03:54:23.744Z,2.60
2023-11-13T03:56:51.047Z,2.72
2023-11-13T03:59:19.454Z,2.05
2023-11-13T04:01:48.583Z,2.70
2023-11-13T04:04:15.996Z,2.20
2023-11-13T04:06:44.600Z,2.40
2023-11-13T04:09:12.741Z,3.60
2023-11-13T04:11:39.962Z,2.30
2023-11-13T04:14:07.146Z,2.22
2023-11-13T04:16:35.340Z,1.92
2023-11-13T04:19:02.794Z,2.00
2023-11-13T04:21:33.189Z,2.50
2023-11-13T04:24:01.046Z,2.03
2023-11-13T04:26:28.721Z,1.35
2023-11-13T04:28:55.900Z,1.55
2023-11-13T04:31:23.640Z,2.60
2023-11-13T04:33:50.904Z,1.20
2023-11-13T04:36:18.193Z,1.48
2023-11-13T04:38:45.424Z,1.30
2023-11-13T04:41:16.638Z,1.13
2023-11-13T04:43:44.958Z,0.90
2023-11-13T04:46:14.053Z,1.67
2023-11-13T04:48:41.745Z,0.85
2023-11-13T04:51:08.954Z,0.90
2023-11-13T04:53:36.158Z,1.10
2023-11-13T04:56:03.332Z,0.60
2023-11-13T04:58:30.513Z,0.35
2023-11-13T05:00:57.782Z,0.55
2023-11-13T05:03:25.027Z,0.28
2023-11-13T05:05:52.491Z,0.20
2023-11-13T05:08:19.709Z,0.10
2023-11-13T05:10:46.915Z,0.00
2023-11-13T05:13:16.871Z,0.20
2023-11-13T05:15:44.382Z,0.00
2023-11-13T05:18:11.889Z,0.30
2023-11-13T05:20:40.870Z,0.10
2023-11-13T05:23:07.990Z,0.10
2023-11-13T05:25:35.241Z,0.15
2023-11-13T05:28:02.712Z,0.10
2023-11-13T05:30:29.903Z,0.10
2023-11-13T05:32:57.346Z,0.20
2023-11-13T05:35:25.020Z,0.17
2023-11-13T05:37:52.206Z,0.10
2023-11-13T05:40:20.560Z,0.10
2023-11-13T05:42:48.148Z,0.10
2023-11-13T05:45:15.965Z,0.20
2023-11-13T05:47:44.994Z,0.30
2023-11-13T05:50:12.243Z,0.32
2023-11-13T05:52:39.495Z,0.60
2023-11-13T05:55:07.168Z,0.90
2023-11-13T05:57:34.396Z,1.00
2023-11-13T06:00:01.491Z,1.50
2023-11-13T06:02:28.892Z,1.63
2023-11-13T06:04:56.106Z,1.67
2023-11-13T06:07:23.499Z,3.38
2023-11-13T06:09:50.800Z,2.55
2023-11-13T06:12:18.644Z,2.45
2023-11-13T06:14:46.150Z,2.92
2023-11-13T06:17:13.389Z,2.95
2023-11-13T06:19:41.516Z,2.97
2023-11-13T06:22:11.527Z,3.83
2023-11-13T06:24:39.601Z,2.85
2023-11-13T06:27:07.980Z,4.10
2023-11-13T06:29:35.139Z,3.28
2023-11-13T06:32:03.258Z,3.30
2023-11-13T06:34:30.690Z,3.10
2023-11-13T06:36:57.991Z,2.20
2023-11-13T06:39:25.329Z,2.45
2023-11-13T06:41:53.354Z,2.20
2023-11-13T06:44:20.771Z,2.72
2023-11-13T06:46:48.219Z,2.50
2023-11-13T06:49:15.568Z,2.03
2023-11-13T06:51:42.835Z,1.95
2023-11-13T06:54:10.159Z,1.83
2023-11-13T06:56:38.308Z,2.33
2023-11-13T06:59:07.908Z,1.48
2023-11-13T07:01:42.327Z,1.83
2023-11-13T07:04:14.211Z,1.40
2023-11-13T07:06:42.069Z,1.48
2023-11-13T07:09:12.734Z,2.05
2023-11-13T07:11:45.908Z,1.33
2023-11-13T07:14:13.678Z,1.98
2023-11-13T07:16:42.065Z,1.63
2023-11-13T07:19:10.013Z,2.13
2023-11-13T07:21:37.227Z,2.05
2023-11-13T07:24:07.461Z,1.90
2023-11-13T07:26:34.781Z,2.05
2023-11-13T07:29:02.097Z,1.83
2023-11-13T07:31:29.277Z,1.60
2023-11-13T07:33:56.745Z,1.55
2023-11-13T07:36:29.213Z,2.10
2023-11-13T07:38:59.907Z,1.95
2023-11-13T07:41:27.093Z,2.28
2023-11-13T07:43:57.473Z,2.17
2023-11-13T07:46:24.778Z,2.05
2023-11-13T07:48:52.001Z,2.25
2023-11-13T07:51:19.268Z,2.20
2023-11-13T07:53:48.050Z,2.83
2023-11-13T07:56:15.580Z,1.73
2023-11-13T07:58:43.025Z,2.30
2023-11-13T08:01:10.481Z,2.20
2023-11-13T08:03:37.756Z,2.75
2023-11-13T08:06:05.249Z,2.15
2023-11-13T08:08:34.830Z,2.08
2023-11-13T08:11:02.261Z,2.35
2023-11-13T08:13:30.386Z,2.63
2023-11-13T08:15:57.655Z,1.60
2023-11-13T08:18:24.866Z,1.60
2023-11-13T08:20:52.031Z,1.63
2023-11-13T08:23:19.254Z,1.55
2023-11-13T08:25:49.210Z,1.98
2023-11-13T08:28:16.819Z,1.77
2023-11-13T08:30:47.408Z,1.38
2023-11-13T08:33:14.796Z,1.50
2023-11-13T08:35:43.027Z,1.42
2023-11-13T08:38:12.613Z,1.35
2023-11-13T08:40:40.041Z,1.10
2023-11-13T08:43:12.451Z,1.00
2023-11-13T08:45:54.652Z,1.33
2023-11-13T08:48:28.922Z,1.48
2023-11-13T08:51:00.655Z,1.45
2023-11-13T08:53:31.501Z,1.10
2023-11-13T08:56:01.423Z,1.55
2023-11-13T08:58:29.207Z,1.20
2023-11-13T09:00:56.477Z,1.08
2023-11-13T09:03:23.871Z,1.00
2023-11-13T09:05:51.097Z,1.27
2023-11-13T09:08:18.344Z,1.45
2023-11-13T09:10:46.382Z,1.10
2023-11-13T09:13:14.352Z,1.67
2023-11-13T09:15:42.379Z,1.33
2023-11-13T09:18:11.303Z,1.92
2023-11-13T09:20:43.287Z,1.75
2023-11-13T09:23:11.029Z,2.13
2023-11-13T09:25:38.566Z,2.08
2023-11-13T09:28:06.368Z,2.70
2023-11-13T09:30:33.983Z,1.83
2023-11-13T09:33:03.718Z,2.90
2023-11-13T09:35:31.519Z,3.30
2023-11-13T09:37:59.775Z,3.47
2023-11-13T09:40:32.437Z,2.63
2023-11-13T09:43:20.523Z,2.83
2023-11-13T09:45:52.597Z,3.83
2023-11-13T09:48:39.510Z,4.15
2023-11-13T09:51:16.609Z,4.55
2023-11-13T09:53:51.658Z,4.20
2023-11-13T09:56:19.399Z,4.18
2023-11-13T09:58:50.498Z,3.50
2023-11-13T10:01:21.800Z,4.32
2023-11-13T10:03:49.288Z,3.80
2023-11-13T10:06:17.906Z,3.95
2023-11-13T10:08:51.038Z,3.85
2023-11-13T10:11:21.487Z,4.57
2023-11-13T10:13:48.842Z,4.07
2023-11-13T10:16:18.512Z,4.72
2023-11-13T10:18:47.160Z,5.15
2023-11-13T10:21:23.184Z,5.30
2023-11-13T10:23:50.429Z,5.03
2023-11-13T10:26:26.898Z,5.03
2023-11-13T10:28:54.348Z,5.88
2023-11-13T10:31:25.315Z,6.22
2023-11-13T10:34:01.366Z,6.65
2023-11-13T10:36:33.632Z,4.60
2023-11-13T10:39:01.404Z,6.38
2023-11-13T10:41:31.131Z,5.65
2023-11-13T10:43:58.468Z,5.95
2023-11-13T10:46:35.067Z,6.45
2023-11-13T10:49:04.357Z,5.90
2023-11-13T10:51:32.475Z,6.38
2023-11-13T10:54:02.557Z,7.07
2023-11-13T10:58:59.156Z,4.25
2023-11-13T11:01:30.504Z,4.93
2023-11-13T11:04:07.405Z,4.60
2023-11-13T11:06:40.467Z,4.15
2023-11-13T11:09:09.079Z,5.35
2023-11-13T11:11:36.738Z,3.67
2023-11-13T11:14:21.962Z,4.95
2023-11-13T11:16:55.719Z,3.30
2023-11-13T11:19:30.605Z,5.28
2023-11-13T11:22:14.710Z,5.00
2023-11-13T11:25:00.455Z,4.63
2023-11-13T11:27:42.759Z,2.35
2023-11-13T11:30:19.624Z,3.17
2023-11-13T11:32:58.156Z,3.22
2023-11-13T11:35:31.050Z,3.05
2023-11-13T11:38:29.847Z,2.40
2023-11-13T11:41:00.734Z,2.30
2023-11-13T11:43:34.158Z,2.25
2023-11-13T11:46:08.258Z,2.25
2023-11-13T11:48:39.178Z,2.28
2023-11-13T11:51:23.029Z,2.45
2023-11-13T11:53:59.024Z,2.13
2023-11-13T11:56:28.737Z,2.10
2023-11-13T11:58:56.960Z,2.40
2023-11-13T12:01:25.634Z,2.40
2023-11-13T12:03:53.839Z,2.25
2023-11-13T12:06:22.502Z,2.15
2023-11-13T12:08:50.906Z,1.90
2023-11-13T12:11:21.435Z,2.20
2023-11-13T12:13:49.024Z,2.45
2023-11-13T12:16:16.348Z,2.47
2023-11-13T12:18:43.586Z,2.53
2023-11-13T12:21:10.764Z,2.50
2023-11-13T12:23:37.985Z,2.75
2023-11-13T12:26:06.208Z,2.35
2023-11-13T12:28:34.201Z,2.40
2023-11-13T12:31:16.207Z,2.53
2023-11-13T12:33:45.648Z,2.60
2023-11-13T12:36:14.643Z,3.03
2023-11-13T12:38:48.850Z,3.08
2023-11-13T12:41:16.293Z,2.53
2023-11-13T12:43:44.081Z,2.85
2023-11-13T12:46:12.993Z,2.85
2023-11-13T12:48:42.437Z,2.40
2023-11-13T12:51:11.342Z,2.30
2023-11-13T12:53:40.050Z,3.15
2023-11-13T12:56:07.989Z,3.00
2023-11-13T12:58:37.304Z,2.47
2023-11-13T13:01:07.739Z,2.10
2023-11-13T13:03:36.246Z,2.83
2023-11-13T13:06:09.396Z,2.35
2023-11-13T13:08:36.770Z,3.53
2023-11-13T13:11:04.301Z,2.28
2023-11-13T13:13:42.688Z,3.38
2023-11-13T13:16:19.486Z,2.50
2023-11-13T13:18:46.788Z,2.92
2023-11-13T13:21:14.845Z,2.78
2023-11-13T13:23:44.388Z,2.28
2023-11-13T13:26:12.433Z,2.88
2023-11-13T13:28:41.878Z,2.30
2023-11-13T13:31:12.232Z,2.42
2023-11-13T13:33:41.761Z,2.42
2023-11-13T13:36:10.382Z,2.40
2023-11-13T13:38:37.545Z,3.10
2023-11-13T13:41:05.629Z,2.45
2023-11-13T13:43:33.265Z,2.95
2023-11-13T13:46:01.126Z,2.85
2023-11-13T13:48:28.767Z,2.40
2023-11-13T13:50:58.324Z,3.00
2023-11-13T13:53:29.820Z,3.50
2023-11-13T13:56:00.022Z,2.45
2023-11-13T13:58:27.249Z,2.75
2023-11-13T14:00:55.410Z,2.95
2023-11-13T14:03:23.785Z,3.20
2023-11-13T14:05:51.235Z,2.70
2023-11-13T14:08:21.787Z,2.60
2023-11-13T14:10:52.698Z,2.97
2023-11-13T14:13:23.944Z,2.90
2023-11-13T14:18:26.397Z,2.40
2023-11-13T14:20:57.543Z,2.60
2023-11-13T14:23:26.370Z,2.88
2023-11-13T14:25:55.903Z,3.28
2023-11-13T14:28:23.915Z,3.00
2023-11-13T14:30:51.870Z,3.83
2023-11-13T14:33:20.546Z,2.95
2023-11-13T14:35:48.243Z,3.08
2023-11-13T14:38:15.902Z,2.42
2023-11-13T14:40:43.379Z,3.20
2023-11-13T14:43:11.100Z,2.97
2023-11-13T14:45:40.374Z,2.50
2023-11-13T14:48:07.685Z,3.88
2023-11-13T14:50:36.596Z,3.10
2023-11-13T14:53:03.996Z,2.97
2023-11-13T14:55:31.593Z,2.17
2023-11-13T14:57:58.825Z,3.00
2023-11-13T15:00:28.140Z,3.60
2023-11-13T15:02:55.802Z,2.13
2023-11-13T15:05:23.287Z,2.67
2023-11-13T15:07:51.380Z,2.03
2023-11-13T15:10:20.739Z,2.65
2023-11-13T15:12:48.454Z,2.83
2023-11-13T15:15:19.903Z,2.58
2023-11-13T15:17:48.655Z,2.60
2023-11-13T15:20:19.213Z,2.83
2023-11-13T15:25:20.352Z,2.88
2023-11-13T15:27:48.405Z,3.00
2023-11-13T15:30:19.344Z,2.22
2023-11-13T15:32:47.466Z,3.08
2023-11-13T15:35:15.309Z,3.05
2023-11-13T15:37:43.080Z,4.05
2023-11-13T15:40:12.930Z,4.25
2023-11-13T15:42:40.380Z,3.28
2023-11-13T15:45:08.637Z,4.05
2023-11-13T15:47:39.600Z,2.90
2023-11-13T15:50:11.174Z,3.25
2023-11-13T15:52:42.485Z,2.93
2023-11-13T15:55:11.594Z,2.58
2023-11-13T15:57:39.856Z,4.43
2023-11-13T16:00:10.930Z,10.95
2023-11-13T16:02:40.637Z,4.95
2023-11-13T16:05:09.663Z,6.80
2023-11-13T16:07:37.338Z,6.38
2023-11-13T16:10:05.177Z,4.50
2023-11-13T16:12:32.633Z,13.57
2023-11-13T16:15:00.548Z,7.35
2023-11-13T16:17:30.961Z,9.07
2023-11-13T16:19:59.371Z,6.38
2023-11-13T16:22:26.770Z,4.82
2023-11-13T16:24:54.089Z,5.15
2023-11-13T16:27:21.270Z,6.78
2023-11-13T16:29:48.620Z,6.38
2023-11-13T16:32:17.410Z,5.55
2023-11-13T16:34:44.714Z,4.03
2023-11-13T16:37:11.985Z,6.32
2023-11-13T16:39:39.427Z,5.50
2023-11-13T16:42:06.742Z,5.90
2023-11-13T16:44:33.938Z,5.97
2023-11-13T16:47:01.356Z,5.50
2023-11-13T16:49:29.559Z,5.45
2023-11-13T16:51:56.915Z,4.57
2023-11-13T16:54:27.838Z,4.00
2023-11-13T16:56:56.732Z,3.78
2023-11-13T16:59:24.217Z,3.30
2023-11-13T17:01:51.486Z,3.20
2023-11-13T17:04:19.342Z,3.65
2023-11-13T17:06:46.502Z,3.40
2023-11-13T17:09:17.012Z,3.28
2023-11-13T17:11:45.303Z,3.42
2023-11-13T17:14:13.436Z,3.10
2023-11-13T17:16:42.438Z,3.75
2023-11-13T17:19:11.013Z,3.63
2023-11-13T17:21:39.118Z,3.83
2023-11-13T17:24:07.163Z,3.28
2023-11-13T17:26:34.750Z,3.50
2023-11-13T17:29:05.987Z,4.82
2023-11-13T17:31:33.288Z,4.30
2023-11-13T17:34:00.955Z,3.92
2023-11-13T17:36:29.883Z,4.10
2023-11-13T17:38:57.372Z,4.60
2023-11-13T17:41:24.628Z,2.58
2023-11-13T17:43:52.537Z,3.55
2023-11-13T17:46:20.024Z,3.47
2023-11-13T17:48:47.217Z,3.80
2023-11-13T17:51:14.412Z,3.85
2023-11-13T17:53:41.593Z,3.20
2023-11-13T17:56:09.280Z,4.05
2023-11-13T17:58:36.788Z,3.88
2023-11-13T18:01:05.480Z,4.43
2023-11-13T18:03:33.508Z,4.45
2023-11-13T18:06:01.068Z,4.03
2023-11-13T18:08:28.648Z,4.43
2023-11-13T18:10:58.499Z,3.20
2023-11-13T18:13:26.980Z,3.38
2023-11-13T18:15:54.277Z,5.07
2023-11-13T18:18:21.562Z,3.92
2023-11-13T18:20:48.708Z,4.28
2023-11-13T18:23:15.865Z,3.95
2023-11-13T18:25:43.370Z,3.58
2023-11-13T18:28:11.647Z,3.75
2023-11-13T18:30:39.749Z,5.20
2023-11-13T18:33:07.432Z,11.88
2023-11-13T18:35:36.291Z,23.05
2023-11-13T18:38:03.474Z,9.98
2023-11-13T18:40:30.710Z,4.88
2023-11-13T18:42:58.645Z,4.15
2023-11-13T18:45:25.889Z,4.13
2023-11-13T18:47:53.558Z,3.88
2023-11-13T18:50:22.391Z,3.55
2023-11-13T18:52:49.685Z,3.85
2023-11-13T18:55:17.159Z,4.30
2023-11-13T18:57:44.482Z,5.78
2023-11-13T19:00:13.968Z,4.00
2023-11-13T19:02:41.358Z,5.25
2023-11-13T19:05:10.166Z,4.47
2023-11-13T19:07:37.435Z,4.60
2023-11-13T19:10:04.981Z,4.57
2023-11-13T19:12:32.940Z,3.92
2023-11-13T19:15:02.236Z,4.82
2023-11-13T19:17:29.541Z,5.00
2023-11-13T19:19:57.375Z,5.18
2023-11-13T19:22:24.754Z,6.43
2023-11-13T19:24:52.244Z,5.10
2023-11-13T19:27:20.702Z,5.97
2023-11-13T19:29:48.165Z,5.88
2023-11-13T19:32:16.735Z,3.95
2023-11-13T19:34:43.960Z,5.25
2023-11-13T19:37:11.192Z,5.72
2023-11-13T19:39:38.523Z,5.75
2023-11-13T19:42:05.875Z,4.57
2023-11-13T19:44:43.977Z,4.13
2023-11-13T19:47:15.550Z,4.13
2023-11-13T19:49:42.744Z,5.35
2023-11-13T19:52:10.464Z,5.07
2023-11-13T19:54:37.846Z,5.50
2023-11-13T19:57:05.160Z,6.60
2023-11-13T19:59:34.173Z,6.20
2023-11-13T20:02:01.465Z,6.38
2023-11-13T20:04:28.852Z,5.90
2023-11-13T20:06:56.198Z,6.35
2023-11-13T20:09:23.583Z,6.38
2023-11-13T20:11:50.861Z,6.57
2023-11-13T20:14:18.057Z,5.40
2023-11-13T20:16:45.714Z,6.25
2023-11-13T20:19:14.229Z,5.47
2023-11-13T20:21:43.870Z,5.70
2023-11-13T20:24:15.150Z,5.03
2023-11-13T20:26:42.518Z,7.45
2023-11-13T20:29:09.931Z,8.35
2023-11-13T20:31:37.225Z,6.45
2023-11-13T20:34:04.907Z,6.22
2023-11-13T20:36:32.768Z,6.47
2023-11-13T20:39:00.714Z,6.80
2023-11-13T20:41:28.032Z,7.50
2023-11-13T20:43:57.994Z,10.60
2023-11-13T20:46:25.731Z,17.50
2023-11-13T20:48:53.033Z,25.33
2023-11-13T20:51:20.353Z,9.30
2023-11-13T20:53:47.839Z,7.70
2023-11-13T20:56:15.407Z,15.93
2023-11-13T20:58:44.902Z,18.15
2023-11-13T21:01:13.775Z,15.52
2023-11-13T21:03:41.115Z,11.00
2023-11-13T21:06:09.333Z,7.53
2023-11-13T21:08:36.700Z,16.70
2023-11-13T21:11:07.528Z,15.57
2023-11-13T21:13:34.951Z,16.52
2023-11-13T21:16:02.343Z,8.55
2023-11-13T21:18:29.716Z,7.00
2023-11-13T21:21:00.136Z,8.75
2023-11-13T21:23:27.629Z,9.15
2023-11-13T21:25:54.932Z,6.60
2023-11-13T21:28:22.246Z,6.88
2023-11-13T21:30:51.813Z,16.90
2023-11-13T21:33:22.180Z,13.73
2023-11-13T21:35:50.037Z,8.90
2023-11-13T21:38:18.809Z,7.18
2023-11-13T21:40:46.358Z,8.13
2023-11-13T21:43:14.851Z,6.95
2023-11-13T21:45:42.075Z,8.77
2023-11-13T21:48:09.882Z,6.40
2023-11-13T21:50:37.323Z,7.43
2023-11-13T21:53:05.002Z,5.90
2023-11-13T21:55:32.241Z,8.57
2023-11-13T21:58:01.435Z,6.13
2023-11-13T22:00:29.248Z,6.53
2023-11-13T22:02:57.448Z,8.02
2023-11-13T22:05:27.657Z,6.78
2023-11-13T22:07:54.881Z,7.07
2023-11-13T22:10:22.202Z,7.20
2023-11-13T22:12:49.466Z,6.53
2023-11-13T22:15:17.559Z,7.95
2023-11-13T22:17:45.590Z,7.22
2023-11-13T22:20:13.395Z,6.95
2023-11-13T22:22:40.726Z,8.00
2023-11-13T22:25:11.216Z,6.43
2023-11-13T22:27:38.616Z,6.43
2023-11-13T22:30:08.142Z,7.63
2023-11-13T22:32:35.592Z,6.45
2023-11-13T22:35:03.288Z,5.18
2023-11-13T22:37:31.282Z,7.07
2023-11-13T22:39:58.559Z,5.28
2023-11-13T22:42:29.213Z,5.97
2023-11-13T22:44:56.525Z,5.05
2023-11-13T22:47:25.246Z,6.80
2023-11-13T22:49:55.542Z,6.13
2023-11-13T22:52:22.947Z,6.32
2023-11-13T22:54:52.930Z,5.65
2023-11-13T22:57:20.660Z,6.25
2023-11-13T22:59:48.262Z,5.15
2023-11-13T23:02:15.767Z,6.93
2023-11-13T23:04:43.119Z,6.20
2023-11-13T23:07:10.968Z,6.05
2023-11-13T23:09:39.864Z,6.32
2023-11-13T23:12:07.456Z,5.45
2023-11-13T23:14:34.674Z,6.60
2023-11-13T23:17:02.400Z,5.80
2023-11-13T23:19:30.104Z,6.28
2023-11-13T23:22:03.771Z,7.47
2023-11-13T23:24:33.212Z,6.20
2023-11-13T23:27:01.446Z,5.85
2023-11-13T23:29:29.074Z,6.60
2023-11-13T23:31:56.430Z,5.10
2023-11-13T23:34:23.821Z,6.03
2023-11-13T23:36:51.142Z,5.35
2023-11-13T23:39:18.921Z,6.80
2023-11-13T23:41:46.106Z,6.40
2023-11-13T23:44:13.311Z,5.57
2023-11-13T23:46:41.095Z,5.50
2023-11-13T23:49:08.434Z,7.63
2023-11-13T23:51:35.743Z,6.57
2023-11-13T23:54:03.058Z,7.00
2023-11-13T23:56:30.440Z,5.05
2023-11-13T23:58:57.994Z,5.63
